Goodwill — DSOW6 — position and weather

sailwx.info

Track history (hours):
 
Tides and Currents Weather Stations Pressure Air Temp Water Temp Dewpoint Dewpoint Depression Visibility Wind Speed Wind Dir Waves Ship Positions

Goodwill

Last reported at 2015-May-07 12:10 UTC. Time now 2015-May-22 23:42 UTC.
Position S 26°13' E 153°58'.
Warning: this ship's position is 15 days out of date.

Length 269 m; draft 15.2 m.

Type: Cargo ship. MMSI: 440541000.

Date/timePositionNaut miles runAvg speedWind from/ knotsBaromVisibWave heightAir tempDewpointWater temp
2015-May-07 12:10S 26°13' E 153°58'17 8.2
2015-May-07 10:07S 26°29' E 153°58'5 8.6
2015-May-07 09:30S 26°35' E 153°58'9 9.4
2015-May-07 08:30S 26°44' E 153°57'1010.9
2015-May-07 07:33S 26°55' E 153°57'1010.6
2015-May-07 06:33S 27°05' E 153°56'2210.8
2015-May-07 04:28S 27°28' E 153°54'1410.8
2015-May-07 03:13S 27°41' E 153°52'710.2
2015-May-07 02:33S 27°48' E 153°51'280 8.4
2015-May-05 17:28S 32°21' E 152°45'8 8.5
2015-May-05 16:33S 32°28' E 152°42'8 8.4
2015-May-05 15:33S 32°36' E 152°37'9 9.0
2015-May-05 14:33S 32°42' E 152°29'1010.0
2015-May-05 13:33S 32°48' E 152°20'1010.1
2015-May-05 12:33S 32°54' E 152°10'1010.1
2015-May-05 11:33S 32°56' E 151°58'8 8.2
2015-May-05 10:33S 32°55' E 151°49'3 2.7
2015-May-05 09:32S 32°53' E 151°46'0 0.0
2015-May-05 08:32S 32°53' E 151°46'0 0.0
2015-May-05 07:32S 32°53' E 151°46'0 0.0
2015-May-05 06:29S 32°53' E 151°46'0 0.0
2015-May-05 05:29S 32°53' E 151°46'0 0.0
2015-May-05 04:29S 32°53' E 151°46'0 0.0
2015-May-05 03:29S 32°53' E 151°46'0 0.0
2015-May-05 02:29S 32°53' E 151°46'0 0.0
2015-May-05 01:32S 32°53' E 151°46'0 0.0
2015-May-05 00:32S 32°53' E 151°46'0 0.0
2015-May-04 23:32S 32°53' E 151°46'0 0.0
2015-May-04 22:32S 32°53' E 151°46'0 0.0
2015-May-04 21:32S 32°53' E 151°46'0 0.0
2015-May-04 20:32S 32°53' E 151°46'0 0.0
2015-May-04 19:32S 32°53' E 151°46'0 0.0
2015-May-04 18:11S 32°53' E 151°46'0 0.0
2015-May-04 17:32S 32°53' E 151°46'0 0.0
2015-May-04 16:32S 32°53' E 151°46'0 0.0
2015-May-04 15:32S 32°53' E 151°46'0 0.0
2015-May-04 14:29S 32°53' E 151°46'0 0.0
2015-May-04 13:32S 32°53' E 151°46'0 0.0
2015-May-04 12:32S 32°53' E 151°46'0 0.0
2015-May-04 11:32S 32°53' E 151°46'0 0.0
2015-May-04 10:29S 32°53' E 151°46'0 0.0
2015-May-04 09:32S 32°53' E 151°46'0 0.0
2015-May-04 08:32S 32°53' E 151°46'0 0.0
2015-May-04 07:29S 32°53' E 151°46'0 0.0
2015-May-04 06:32S 32°53' E 151°46'0 0.0
2015-May-04 05:33S 32°53' E 151°46'2 2.4
2015-May-04 04:33S 32°55' E 151°47'7 7.0
2015-May-04 03:33S 33°01' E 151°52'10 8.9
2015-May-04 02:27S 33°11' E 151°54'  
2015-Apr-28 13:27S 33°18' E 152°03'5 5.1
2015-Apr-28 12:33S 33°14' E 152°01'5 4.6
2015-Apr-28 11:33S 33°09' E 151°59'5 4.7
2015-Apr-28 10:33S 33°05' E 151°59'5 4.5
2015-Apr-28 09:33S 33°00' E 151°59'6 5.8
2015-Apr-28 08:34S 32°55' E 152°03'1010.3
2015-Apr-28 07:33S 32°52' E 152°15'1010.5
2015-Apr-28 06:33S 32°45' E 152°24'1010.4
2015-Apr-28 05:33S 32°38' E 152°32'1411.2
2015-Apr-28 04:17S 32°26' E 152°43'  
Track history (hours):
 
Tides and Currents Weather Stations Pressure Air Temp Water Temp Dewpoint Dewpoint Depression Visibility Wind Speed Wind Dir Waves Ship Positions

Goodwill

Last reported at 2015-May-07 12:10 UTC. Time now 2015-May-22 23:42 UTC.
Position S 26°13' E 153°58'.
Warning: this ship's position is 15 days out of date.

Length 269 m; draft 15.2 m.

Type: Cargo ship. MMSI: 440541000.

Date/timePositionNaut miles runAvg speedWind from/ knotsBaromVisibWave heightAir tempDewpointWater temp
2015-May-07 12:10S 26°13' E 153°58'17 8.2
2015-May-07 10:07S 26°29' E 153°58'5 8.6
2015-May-07 09:30S 26°35' E 153°58'9 9.4
2015-May-07 08:30S 26°44' E 153°57'1010.9
2015-May-07 07:33S 26°55' E 153°57'1010.6
2015-May-07 06:33S 27°05' E 153°56'2210.8
2015-May-07 04:28S 27°28' E 153°54'1410.8
2015-May-07 03:13S 27°41' E 153°52'710.2
2015-May-07 02:33S 27°48' E 153°51'280 8.4
2015-May-05 17:28S 32°21' E 152°45'8 8.5
2015-May-05 16:33S 32°28' E 152°42'8 8.4
2015-May-05 15:33S 32°36' E 152°37'9 9.0
2015-May-05 14:33S 32°42' E 152°29'1010.0
2015-May-05 13:33S 32°48' E 152°20'1010.1
2015-May-05 12:33S 32°54' E 152°10'1010.1
2015-May-05 11:33S 32°56' E 151°58'8 8.2
2015-May-05 10:33S 32°55' E 151°49'3 2.7
2015-May-05 09:32S 32°53' E 151°46'0 0.0
2015-May-05 08:32S 32°53' E 151°46'0 0.0
2015-May-05 07:32S 32°53' E 151°46'0 0.0
2015-May-05 06:29S 32°53' E 151°46'0 0.0
2015-May-05 05:29S 32°53' E 151°46'0 0.0
2015-May-05 04:29S 32°53' E 151°46'0 0.0
2015-May-05 03:29S 32°53' E 151°46'0 0.0
2015-May-05 02:29S 32°53' E 151°46'0 0.0
2015-May-05 01:32S 32°53' E 151°46'0 0.0
2015-May-05 00:32S 32°53' E 151°46'0 0.0
2015-May-04 23:32S 32°53' E 151°46'0 0.0
2015-May-04 22:32S 32°53' E 151°46'0 0.0
2015-May-04 21:32S 32°53' E 151°46'0 0.0
2015-May-04 20:32S 32°53' E 151°46'0 0.0
2015-May-04 19:32S 32°53' E 151°46'0 0.0
2015-May-04 18:11S 32°53' E 151°46'0 0.0
2015-May-04 17:32S 32°53' E 151°46'0 0.0
2015-May-04 16:32S 32°53' E 151°46'0 0.0
2015-May-04 15:32S 32°53' E 151°46'0 0.0
2015-May-04 14:29S 32°53' E 151°46'0 0.0
2015-May-04 13:32S 32°53' E 151°46'0 0.0
2015-May-04 12:32S 32°53' E 151°46'0 0.0
2015-May-04 11:32S 32°53' E 151°46'0 0.0
2015-May-04 10:29S 32°53' E 151°46'0 0.0
2015-May-04 09:32S 32°53' E 151°46'0 0.0
2015-May-04 08:32S 32°53' E 151°46'0 0.0
2015-May-04 07:29S 32°53' E 151°46'0 0.0
2015-May-04 06:32S 32°53' E 151°46'0 0.0
2015-May-04 05:33S 32°53' E 151°46'2 2.4
2015-May-04 04:33S 32°55' E 151°47'7 7.0
2015-May-04 03:33S 33°01' E 151°52'10 8.9
2015-May-04 02:27S 33°11' E 151°54'  
2015-Apr-28 13:27S 33°18' E 152°03'5 5.1
2015-Apr-28 12:33S 33°14' E 152°01'5 4.6
2015-Apr-28 11:33S 33°09' E 151°59'5 4.7
2015-Apr-28 10:33S 33°05' E 151°59'5 4.5
2015-Apr-28 09:33S 33°00' E 151°59'6 5.8
2015-Apr-28 08:34S 32°55' E 152°03'1010.3
2015-Apr-28 07:33S 32°52' E 152°15'1010.5
2015-Apr-28 06:33S 32°45' E 152°24'1010.4
2015-Apr-28 05:33S 32°38' E 152°32'1411.2
2015-Apr-28 04:17S 32°26' E 152°43'  

Dump ship's entire track history